sensor_id;sensor_type;location;lat;lon;timestamp;P1;durP1;ratioP1;P2;durP2;ratioP2
62724;SDS011;49026;52.600;4.694;2024-01-11T00:01:33;32.50;;;19.55;;
62724;SDS011;49026;52.600;4.694;2024-01-11T00:03:58;28.33;;;16.70;;
62724;SDS011;49026;52.600;4.694;2024-01-11T00:06:28;33.22;;;18.80;;
62724;SDS011;49026;52.600;4.694;2024-01-11T00:08:56;29.60;;;17.65;;
62724;SDS011;49026;52.600;4.694;2024-01-11T00:11:21;34.03;;;18.55;;
62724;SDS011;49026;52.600;4.694;2024-01-11T00:13:47;35.08;;;19.67;;
62724;SDS011;49026;52.600;4.694;2024-01-11T00:16:14;32.45;;;19.55;;
62724;SDS011;49026;52.600;4.694;2024-01-11T00:18:42;34.00;;;19.02;;
62724;SDS011;49026;52.600;4.694;2024-01-11T00:21:08;34.25;;;19.80;;
62724;SDS011;49026;52.600;4.694;2024-01-11T00:23:33;38.22;;;21.10;;
62724;SDS011;49026;52.600;4.694;2024-01-11T00:25:58;35.22;;;21.52;;
62724;SDS011;49026;52.600;4.694;2024-01-11T00:28:24;39.60;;;21.65;;
62724;SDS011;49026;52.600;4.694;2024-01-11T00:30:49;37.08;;;21.30;;
62724;SDS011;49026;52.600;4.694;2024-01-11T00:33:17;35.97;;;19.95;;
62724;SDS011;49026;52.600;4.694;2024-01-11T00:35:42;33.42;;;20.45;;
62724;SDS011;49026;52.600;4.694;2024-01-11T00:38:07;34.60;;;20.60;;
62724;SDS011;49026;52.600;4.694;2024-01-11T00:40:35;37.28;;;21.75;;
62724;SDS011;49026;52.600;4.694;2024-01-11T00:43:00;41.33;;;21.60;;
62724;SDS011;49026;52.600;4.694;2024-01-11T00:45:26;38.33;;;21.33;;
62724;SDS011;49026;52.600;4.694;2024-01-11T00:47:51;34.00;;;21.33;;
62724;SDS011;49026;52.600;4.694;2024-01-11T00:50:18;38.92;;;21.42;;
62724;SDS011;49026;52.600;4.694;2024-01-11T00:52:44;36.97;;;22.58;;
62724;SDS011;49026;52.600;4.694;2024-01-11T00:55:11;43.17;;;23.70;;
62724;SDS011;49026;52.600;4.694;2024-01-11T00:57:43;34.58;;;20.38;;
62724;SDS011;49026;52.600;4.694;2024-01-11T01:00:09;38.00;;;21.70;;
62724;SDS011;49026;52.600;4.694;2024-01-11T01:05:07;33.53;;;19.48;;
62724;SDS011;49026;52.600;4.694;2024-01-11T01:07:35;37.05;;;21.17;;
62724;SDS011;49026;52.600;4.694;2024-01-11T01:10:03;36.85;;;21.27;;
62724;SDS011;49026;52.600;4.694;2024-01-11T01:12:28;38.25;;;22.63;;
62724;SDS011;49026;52.600;4.694;2024-01-11T01:14:54;41.45;;;23.35;;
62724;SDS011;49026;52.600;4.694;2024-01-11T01:17:20;40.05;;;21.50;;
62724;SDS011;49026;52.600;4.694;2024-01-11T01:19:46;39.50;;;22.60;;
62724;SDS011;49026;52.600;4.694;2024-01-11T01:22:12;39.72;;;23.70;;
62724;SDS011;49026;52.600;4.694;2024-01-11T01:24:37;37.03;;;21.23;;
62724;SDS011;49026;52.600;4.694;2024-01-11T01:27:02;41.47;;;23.33;;
62724;SDS011;49026;52.600;4.694;2024-01-11T01:29:28;36.22;;;23.05;;
62724;SDS011;49026;52.600;4.694;2024-01-11T01:31:53;42.53;;;24.52;;
62724;SDS011;49026;52.600;4.694;2024-01-11T01:34:19;37.40;;;22.15;;
62724;SDS011;49026;52.600;4.694;2024-01-11T01:36:47;36.78;;;23.05;;
62724;SDS011;49026;52.600;4.694;2024-01-11T01:39:12;37.60;;;21.17;;
62724;SDS011;49026;52.600;4.694;2024-01-11T01:41:38;39.45;;;23.15;;
62724;SDS011;49026;52.600;4.694;2024-01-11T01:44:03;38.60;;;22.45;;
62724;SDS011;49026;52.600;4.694;2024-01-11T01:46:29;40.97;;;23.13;;
62724;SDS011;49026;52.600;4.694;2024-01-11T01:48:55;45.22;;;25.17;;
62724;SDS011;49026;52.600;4.694;2024-01-11T01:51:26;42.35;;;25.00;;
62724;SDS011;49026;52.600;4.694;2024-01-11T01:53:54;43.47;;;24.88;;
62724;SDS011;49026;52.600;4.694;2024-01-11T01:56:22;42.78;;;24.58;;
62724;SDS011;49026;52.600;4.694;2024-01-11T01:58:48;46.95;;;26.25;;
62724;SDS011;49026;52.600;4.694;2024-01-11T02:01:16;44.78;;;24.63;;
62724;SDS011;49026;52.600;4.694;2024-01-11T02:03:43;41.45;;;24.08;;
62724;SDS011;49026;52.600;4.694;2024-01-11T02:06:10;50.58;;;27.58;;
62724;SDS011;49026;52.600;4.694;2024-01-11T02:08:36;44.08;;;25.20;;
62724;SDS011;49026;52.600;4.694;2024-01-11T02:11:03;45.83;;;25.83;;
62724;SDS011;49026;52.600;4.694;2024-01-11T02:13:28;50.03;;;28.15;;
62724;SDS011;49026;52.600;4.694;2024-01-11T02:15:53;49.95;;;27.13;;
62724;SDS011;49026;52.600;4.694;2024-01-11T02:18:19;54.85;;;30.55;;
62724;SDS011;49026;52.600;4.694;2024-01-11T02:20:44;54.08;;;29.55;;
62724;SDS011;49026;52.600;4.694;2024-01-11T02:23:14;52.92;;;28.98;;
62724;SDS011;49026;52.600;4.694;2024-01-11T02:25:46;57.30;;;29.52;;
62724;SDS011;49026;52.600;4.694;2024-01-11T02:28:12;55.25;;;29.25;;
62724;SDS011;49026;52.600;4.694;2024-01-11T02:30:37;54.75;;;30.92;;
62724;SDS011;49026;52.600;4.694;2024-01-11T02:33:03;58.00;;;31.27;;
62724;SDS011;49026;52.600;4.694;2024-01-11T02:35:29;56.08;;;29.75;;
62724;SDS011;49026;52.600;4.694;2024-01-11T02:37:55;57.53;;;30.70;;
62724;SDS011;49026;52.600;4.694;2024-01-11T02:40:24;54.65;;;32.65;;
62724;SDS011;49026;52.600;4.694;2024-01-11T02:42:50;58.35;;;33.60;;
62724;SDS011;49026;52.600;4.694;2024-01-11T02:45:16;57.55;;;32.28;;
62724;SDS011;49026;52.600;4.694;2024-01-11T02:47:43;57.40;;;31.88;;
62724;SDS011;49026;52.600;4.694;2024-01-11T02:50:09;55.78;;;31.08;;
62724;SDS011;49026;52.600;4.694;2024-01-11T02:52:36;55.08;;;30.98;;
62724;SDS011;49026;52.600;4.694;2024-01-11T02:55:01;61.40;;;34.05;;
62724;SDS011;49026;52.600;4.694;2024-01-11T02:57:27;59.35;;;32.15;;
62724;SDS011;49026;52.600;4.694;2024-01-11T02:59:52;59.15;;;33.40;;
62724;SDS011;49026;52.600;4.694;2024-01-11T03:02:22;62.95;;;35.63;;
62724;SDS011;49026;52.600;4.694;2024-01-11T03:04:55;59.70;;;34.33;;
62724;SDS011;49026;52.600;4.694;2024-01-11T03:07:20;58.15;;;33.08;;
62724;SDS011;49026;52.600;4.694;2024-01-11T03:09:46;58.42;;;34.72;;
62724;SDS011;49026;52.600;4.694;2024-01-11T03:12:11;52.38;;;31.23;;
62724;SDS011;49026;52.600;4.694;2024-01-11T03:14:36;56.47;;;33.40;;
62724;SDS011;49026;52.600;4.694;2024-01-11T03:17:04;57.50;;;33.10;;
62724;SDS011;49026;52.600;4.694;2024-01-11T03:19:30;53.25;;;31.48;;
62724;SDS011;49026;52.600;4.694;2024-01-11T03:21:55;56.00;;;33.08;;
62724;SDS011;49026;52.600;4.694;2024-01-11T03:24:20;55.85;;;33.78;;
62724;SDS011;49026;52.600;4.694;2024-01-11T03:26:47;57.97;;;31.90;;
62724;SDS011;49026;52.600;4.694;2024-01-11T03:29:12;58.90;;;34.53;;
62724;SDS011;49026;52.600;4.694;2024-01-11T03:31:40;59.80;;;33.28;;
62724;SDS011;49026;52.600;4.694;2024-01-11T03:34:08;63.50;;;35.72;;
62724;SDS011;49026;52.600;4.694;2024-01-11T03:36:33;59.97;;;34.15;;
62724;SDS011;49026;52.600;4.694;2024-01-11T03:39:01;60.53;;;34.72;;
62724;SDS011;49026;52.600;4.694;2024-01-11T03:41:26;54.95;;;33.78;;
62724;SDS011;49026;52.600;4.694;2024-01-11T03:43:51;55.78;;;33.83;;
62724;SDS011;49026;52.600;4.694;2024-01-11T03:46:19;63.17;;;35.75;;
62724;SDS011;49026;52.600;4.694;2024-01-11T03:48:45;59.35;;;36.13;;
62724;SDS011;49026;52.600;4.694;2024-01-11T03:51:13;62.05;;;35.97;;
62724;SDS011;49026;52.600;4.694;2024-01-11T03:53:38;58.53;;;36.50;;
62724;SDS011;49026;52.600;4.694;2024-01-11T03:56:03;56.97;;;33.60;;
62724;SDS011;49026;52.600;4.694;2024-01-11T03:58:31;60.00;;;35.63;;
62724;SDS011;49026;52.600;4.694;2024-01-11T04:00:57;60.95;;;35.95;;
62724;SDS011;49026;52.600;4.694;2024-01-11T04:03:23;60.17;;;36.35;;
62724;SDS011;49026;52.600;4.694;2024-01-11T04:05:48;60.13;;;34.80;;
62724;SDS011;49026;52.600;4.694;2024-01-11T04:08:13;61.03;;;34.35;;
62724;SDS011;49026;52.600;4.694;2024-01-11T04:10:39;59.08;;;33.78;;
62724;SDS011;49026;52.600;4.694;2024-01-11T04:13:04;61.10;;;35.17;;
62724;SDS011;49026;52.600;4.694;2024-01-11T04:15:34;58.92;;;35.05;;
62724;SDS011;49026;52.600;4.694;2024-01-11T04:17:59;58.58;;;34.53;;
62724;SDS011;49026;52.600;4.694;2024-01-11T04:20:24;60.38;;;34.38;;
62724;SDS011;49026;52.600;4.694;2024-01-11T04:22:49;55.22;;;34.10;;
62724;SDS011;49026;52.600;4.694;2024-01-11T04:25:15;58.67;;;33.97;;
62724;SDS011;49026;52.600;4.694;2024-01-11T04:27:40;60.33;;;34.47;;
62724;SDS011;49026;52.600;4.694;2024-01-11T04:30:06;55.65;;;34.00;;
62724;SDS011;49026;52.600;4.694;2024-01-11T04:32:34;60.75;;;36.25;;
62724;SDS011;49026;52.600;4.694;2024-01-11T04:35:00;57.53;;;33.78;;
62724;SDS011;49026;52.600;4.694;2024-01-11T04:37:27;50.30;;;31.30;;
62724;SDS011;49026;52.600;4.694;2024-01-11T04:39:52;62.33;;;35.08;;
62724;SDS011;49026;52.600;4.694;2024-01-11T04:42:20;64.40;;;38.00;;
62724;SDS011;49026;52.600;4.694;2024-01-11T04:44:45;59.55;;;33.67;;
62724;SDS011;49026;52.600;4.694;2024-01-11T04:47:13;58.10;;;33.65;;
62724;SDS011;49026;52.600;4.694;2024-01-11T04:49:38;53.88;;;30.83;;
62724;SDS011;49026;52.600;4.694;2024-01-11T04:52:04;56.40;;;31.55;;
62724;SDS011;49026;52.600;4.694;2024-01-11T04:54:30;55.55;;;30.98;;
62724;SDS011;49026;52.600;4.694;2024-01-11T04:56:55;58.08;;;33.58;;
62724;SDS011;49026;52.600;4.694;2024-01-11T04:59:22;63.45;;;35.83;;
62724;SDS011;49026;52.600;4.694;2024-01-11T05:01:48;67.28;;;35.75;;
62724;SDS011;49026;52.600;4.694;2024-01-11T05:04:13;69.80;;;35.25;;
62724;SDS011;49026;52.600;4.694;2024-01-11T05:06:38;66.40;;;35.67;;
62724;SDS011;49026;52.600;4.694;2024-01-11T05:09:06;49.58;;;30.17;;
62724;SDS011;49026;52.600;4.694;2024-01-11T05:11:32;59.58;;;34.45;;
62724;SDS011;49026;52.600;4.694;2024-01-11T05:13:57;61.53;;;34.60;;
62724;SDS011;49026;52.600;4.694;2024-01-11T05:16:23;45.35;;;26.48;;
62724;SDS011;49026;52.600;4.694;2024-01-11T05:18:52;54.13;;;31.25;;
62724;SDS011;49026;52.600;4.694;2024-01-11T05:21:18;61.78;;;33.47;;
62724;SDS011;49026;52.600;4.694;2024-01-11T05:23:47;54.42;;;31.67;;
62724;SDS011;49026;52.600;4.694;2024-01-11T05:26:15;56.45;;;30.95;;
62724;SDS011;49026;52.600;4.694;2024-01-11T05:28:41;52.78;;;28.90;;
62724;SDS011;49026;52.600;4.694;2024-01-11T05:31:08;53.03;;;30.20;;
62724;SDS011;49026;52.600;4.694;2024-01-11T05:33:37;50.90;;;29.02;;
62724;SDS011;49026;52.600;4.694;2024-01-11T05:36:05;54.38;;;30.90;;
62724;SDS011;49026;52.600;4.694;2024-01-11T05:38:33;55.92;;;32.30;;
62724;SDS011;49026;52.600;4.694;2024-01-11T05:41:01;59.47;;;32.40;;
62724;SDS011;49026;52.600;4.694;2024-01-11T05:43:28;60.28;;;33.30;;
62724;SDS011;49026;52.600;4.694;2024-01-11T05:45:54;62.40;;;32.88;;
62724;SDS011;49026;52.600;4.694;2024-01-11T05:48:21;62.55;;;33.80;;
62724;SDS011;49026;52.600;4.694;2024-01-11T05:50:50;71.63;;;35.70;;
62724;SDS011;49026;52.600;4.694;2024-01-11T05:53:15;65.57;;;35.75;;
62724;SDS011;49026;52.600;4.694;2024-01-11T05:55:42;65.75;;;35.40;;
62724;SDS011;49026;52.600;4.694;2024-01-11T05:58:07;65.68;;;35.42;;
62724;SDS011;49026;52.600;4.694;2024-01-11T06:00:35;73.25;;;40.05;;
62724;SDS011;49026;52.600;4.694;2024-01-11T06:03:00;66.50;;;34.92;;
62724;SDS011;49026;52.600;4.694;2024-01-11T06:05:28;61.35;;;33.30;;
62724;SDS011;49026;52.600;4.694;2024-01-11T06:07:53;64.22;;;34.25;;
62724;SDS011;49026;52.600;4.694;2024-01-11T06:10:19;59.53;;;32.40;;
62724;SDS011;49026;52.600;4.694;2024-01-11T06:12:44;63.08;;;34.95;;
62724;SDS011;49026;52.600;4.694;2024-01-11T06:15:10;54.95;;;32.08;;
62724;SDS011;49026;52.600;4.694;2024-01-11T06:17:37;58.72;;;32.80;;
62724;SDS011;49026;52.600;4.694;2024-01-11T06:20:02;53.53;;;30.58;;
62724;SDS011;49026;52.600;4.694;2024-01-11T06:22:28;49.67;;;29.42;;
62724;SDS011;49026;52.600;4.694;2024-01-11T06:24:56;51.05;;;29.60;;
62724;SDS011;49026;52.600;4.694;2024-01-11T06:27:24;50.13;;;29.85;;
62724;SDS011;49026;52.600;4.694;2024-01-11T06:29:49;47.28;;;28.77;;
62724;SDS011;49026;52.600;4.694;2024-01-11T06:32:15;56.78;;;32.17;;
62724;SDS011;49026;52.600;4.694;2024-01-11T06:34:40;52.83;;;31.30;;
62724;SDS011;49026;52.600;4.694;2024-01-11T06:37:10;56.97;;;32.75;;
62724;SDS011;49026;52.600;4.694;2024-01-11T06:39:36;47.60;;;28.85;;
62724;SDS011;49026;52.600;4.694;2024-01-11T06:42:04;44.60;;;27.08;;
62724;SDS011;49026;52.600;4.694;2024-01-11T06:44:30;43.33;;;26.50;;
62724;SDS011;49026;52.600;4.694;2024-01-11T06:46:58;46.28;;;27.10;;
62724;SDS011;49026;52.600;4.694;2024-01-11T06:49:23;50.78;;;29.02;;
62724;SDS011;49026;52.600;4.694;2024-01-11T06:51:48;46.60;;;27.65;;
62724;SDS011;49026;52.600;4.694;2024-01-11T06:54:14;52.20;;;28.98;;
62724;SDS011;49026;52.600;4.694;2024-01-11T06:56:39;57.78;;;32.08;;
62724;SDS011;49026;52.600;4.694;2024-01-11T06:59:04;54.42;;;32.33;;
62724;SDS011;49026;52.600;4.694;2024-01-11T07:01:33;65.82;;;33.60;;
62724;SDS011;49026;52.600;4.694;2024-01-11T07:04:00;57.55;;;33.60;;
62724;SDS011;49026;52.600;4.694;2024-01-11T07:06:27;50.85;;;30.73;;
62724;SDS011;49026;52.600;4.694;2024-01-11T07:08:53;60.85;;;37.22;;
62724;SDS011;49026;52.600;4.694;2024-01-11T07:11:18;58.08;;;35.53;;
62724;SDS011;49026;52.600;4.694;2024-01-11T07:13:43;54.15;;;34.33;;
62724;SDS011;49026;52.600;4.694;2024-01-11T07:16:11;51.47;;;32.78;;
62724;SDS011;49026;52.600;4.694;2024-01-11T07:18:36;53.10;;;34.92;;
62724;SDS011;49026;52.600;4.694;2024-01-11T07:21:02;49.55;;;30.73;;
62724;SDS011;49026;52.600;4.694;2024-01-11T07:23:29;46.25;;;29.35;;
62724;SDS011;49026;52.600;4.694;2024-01-11T07:25:55;48.58;;;30.67;;
62724;SDS011;49026;52.600;4.694;2024-01-11T07:28:20;50.40;;;32.67;;
62724;SDS011;49026;52.600;4.694;2024-01-11T07:30:50;46.83;;;29.83;;
62724;SDS011;49026;52.600;4.694;2024-01-11T07:33:16;43.42;;;29.10;;
62724;SDS011;49026;52.600;4.694;2024-01-11T07:35:41;48.08;;;29.17;;
62724;SDS011;49026;52.600;4.694;2024-01-11T07:38:06;44.40;;;28.67;;
62724;SDS011;49026;52.600;4.694;2024-01-11T07:40:32;41.13;;;27.25;;
62724;SDS011;49026;52.600;4.694;2024-01-11T07:42:59;39.55;;;25.88;;
62724;SDS011;49026;52.600;4.694;2024-01-11T07:45:24;41.58;;;25.27;;
62724;SDS011;49026;52.600;4.694;2024-01-11T07:47:52;41.33;;;26.95;;
62724;SDS011;49026;52.600;4.694;2024-01-11T07:50:17;45.70;;;28.52;;
62724;SDS011;49026;52.600;4.694;2024-01-11T07:52:43;44.50;;;28.48;;
62724;SDS011;49026;52.600;4.694;2024-01-11T07:55:11;41.88;;;28.08;;
62724;SDS011;49026;52.600;4.694;2024-01-11T07:57:37;41.85;;;27.08;;
62724;SDS011;49026;52.600;4.694;2024-01-11T08:00:06;37.80;;;25.33;;
62724;SDS011;49026;52.600;4.694;2024-01-11T08:02:32;38.38;;;25.70;;
62724;SDS011;49026;52.600;4.694;2024-01-11T08:04:59;39.47;;;24.98;;
62724;SDS011;49026;52.600;4.694;2024-01-11T08:07:27;47.10;;;29.05;;
62724;SDS011;49026;52.600;4.694;2024-01-11T08:09:52;44.78;;;28.55;;
62724;SDS011;49026;52.600;4.694;2024-01-11T08:12:21;44.40;;;28.63;;
62724;SDS011;49026;52.600;4.694;2024-01-11T08:14:46;79.03;;;30.17;;
62724;SDS011;49026;52.600;4.694;2024-01-11T08:17:15;43.17;;;26.95;;
62724;SDS011;49026;52.600;4.694;2024-01-11T08:19:40;45.25;;;28.65;;
62724;SDS011;49026;52.600;4.694;2024-01-11T08:22:07;47.97;;;31.27;;
62724;SDS011;49026;52.600;4.694;2024-01-11T08:24:33;44.90;;;27.95;;
62724;SDS011;49026;52.600;4.694;2024-01-11T08:27:02;41.50;;;26.65;;
62724;SDS011;49026;52.600;4.694;2024-01-11T08:29:27;46.47;;;27.48;;
62724;SDS011;49026;52.600;4.694;2024-01-11T08:31:53;46.20;;;29.05;;
62724;SDS011;49026;52.600;4.694;2024-01-11T08:34:22;43.53;;;28.98;;
62724;SDS011;49026;52.600;4.694;2024-01-11T08:36:51;40.67;;;26.60;;
62724;SDS011;49026;52.600;4.694;2024-01-11T08:39:16;41.25;;;27.85;;
62724;SDS011;49026;52.600;4.694;2024-01-11T08:41:42;45.00;;;26.20;;
62724;SDS011;49026;52.600;4.694;2024-01-11T08:44:07;41.00;;;26.20;;
62724;SDS011;49026;52.600;4.694;2024-01-11T08:46:33;41.17;;;26.35;;
62724;SDS011;49026;52.600;4.694;2024-01-11T08:48:59;40.28;;;26.27;;
62724;SDS011;49026;52.600;4.694;2024-01-11T08:51:27;50.97;;;24.65;;
62724;SDS011;49026;52.600;4.694;2024-01-11T08:53:53;43.75;;;26.38;;
62724;SDS011;49026;52.600;4.694;2024-01-11T08:56:18;37.63;;;24.95;;
62724;SDS011;49026;52.600;4.694;2024-01-11T08:58:47;37.67;;;23.65;;
62724;SDS011;49026;52.600;4.694;2024-01-11T09:01:13;38.40;;;23.77;;
62724;SDS011;49026;52.600;4.694;2024-01-11T09:03:38;43.67;;;23.90;;
62724;SDS011;49026;52.600;4.694;2024-01-11T09:06:04;34.38;;;21.13;;
62724;SDS011;49026;52.600;4.694;2024-01-11T09:08:34;42.25;;;19.83;;
62724;SDS011;49026;52.600;4.694;2024-01-11T09:10:59;44.42;;;24.88;;
62724;SDS011;49026;52.600;4.694;2024-01-11T09:13:25;44.53;;;24.30;;
62724;SDS011;49026;52.600;4.694;2024-01-11T09:15:51;40.30;;;21.77;;
62724;SDS011;49026;52.600;4.694;2024-01-11T09:18:17;42.17;;;21.00;;
62724;SDS011;49026;52.600;4.694;2024-01-11T09:20:45;45.22;;;21.58;;
62724;SDS011;49026;52.600;4.694;2024-01-11T09:23:13;35.95;;;18.80;;
62724;SDS011;49026;52.600;4.694;2024-01-11T09:25:39;42.58;;;22.63;;
62724;SDS011;49026;52.600;4.694;2024-01-11T09:28:05;36.83;;;21.25;;
62724;SDS011;49026;52.600;4.694;2024-01-11T09:30:30;35.45;;;18.83;;
62724;SDS011;49026;52.600;4.694;2024-01-11T09:32:56;33.55;;;18.35;;
62724;SDS011;49026;52.600;4.694;2024-01-11T09:35:21;27.85;;;15.93;;
62724;SDS011;49026;52.600;4.694;2024-01-11T09:37:50;31.38;;;16.90;;
62724;SDS011;49026;52.600;4.694;2024-01-11T09:40:17;24.00;;;14.07;;
62724;SDS011;49026;52.600;4.694;2024-01-11T09:42:42;26.92;;;16.15;;
62724;SDS011;49026;52.600;4.694;2024-01-11T09:45:19;28.80;;;15.35;;
62724;SDS011;49026;52.600;4.694;2024-01-11T09:47:45;27.83;;;15.02;;
62724;SDS011;49026;52.600;4.694;2024-01-11T09:50:11;24.80;;;14.13;;
62724;SDS011;49026;52.600;4.694;2024-01-11T09:52:40;26.40;;;14.35;;
62724;SDS011;49026;52.600;4.694;2024-01-11T09:55:08;30.83;;;17.67;;
62724;SDS011;49026;52.600;4.694;2024-01-11T09:57:33;26.52;;;15.05;;
62724;SDS011;49026;52.600;4.694;2024-01-11T10:00:03;25.23;;;13.32;;
62724;SDS011;49026;52.600;4.694;2024-01-11T10:02:32;34.25;;;15.18;;
62724;SDS011;49026;52.600;4.694;2024-01-11T10:05:00;27.55;;;15.18;;
62724;SDS011;49026;52.600;4.694;2024-01-11T10:07:25;29.83;;;16.42;;
62724;SDS011;49026;52.600;4.694;2024-01-11T10:09:54;31.73;;;16.25;;
62724;SDS011;49026;52.600;4.694;2024-01-11T10:12:20;33.30;;;17.95;;
62724;SDS011;49026;52.600;4.694;2024-01-11T10:14:48;30.23;;;15.80;;
62724;SDS011;49026;52.600;4.694;2024-01-11T10:17:13;27.67;;;14.85;;
62724;SDS011;49026;52.600;4.694;2024-01-11T10:19:39;20.25;;;11.32;;
62724;SDS011;49026;52.600;4.694;2024-01-11T10:22:04;25.52;;;11.70;;
62724;SDS011;49026;52.600;4.694;2024-01-11T10:24:32;26.58;;;15.75;;
62724;SDS011;49026;52.600;4.694;2024-01-11T10:27:00;24.38;;;13.35;;
62724;SDS011;49026;52.600;4.694;2024-01-11T10:29:32;24.52;;;15.18;;
62724;SDS011;49026;52.600;4.694;2024-01-11T10:32:01;21.90;;;13.27;;
62724;SDS011;49026;52.600;4.694;2024-01-11T10:34:28;24.27;;;14.02;;
62724;SDS011;49026;52.600;4.694;2024-01-11T10:36:53;26.00;;;15.63;;
62724;SDS011;49026;52.600;4.694;2024-01-11T10:39:23;32.42;;;18.45;;
62724;SDS011;49026;52.600;4.694;2024-01-11T10:42:02;28.30;;;17.38;;
62724;SDS011;49026;52.600;4.694;2024-01-11T10:44:32;28.98;;;14.80;;
62724;SDS011;49026;52.600;4.694;2024-01-11T10:47:02;26.25;;;16.15;;
62724;SDS011;49026;52.600;4.694;2024-01-11T10:49:32;26.85;;;16.10;;
62724;SDS011;49026;52.600;4.694;2024-01-11T10:51:59;23.00;;;13.60;;
62724;SDS011;49026;52.600;4.694;2024-01-11T10:54:26;25.35;;;15.65;;
62724;SDS011;49026;52.600;4.694;2024-01-11T10:56:56;33.17;;;16.75;;
62724;SDS011;49026;52.600;4.694;2024-01-11T10:59:24;26.30;;;14.77;;
62724;SDS011;49026;52.600;4.694;2024-01-11T11:01:52;30.42;;;17.08;;
62724;SDS011;49026;52.600;4.694;2024-01-11T11:04:19;29.70;;;17.67;;
62724;SDS011;49026;52.600;4.694;2024-01-11T11:06:47;26.48;;;14.65;;
62724;SDS011;49026;52.600;4.694;2024-01-11T11:09:18;27.30;;;15.63;;
62724;SDS011;49026;52.600;4.694;2024-01-11T11:11:46;28.77;;;14.60;;
62724;SDS011;49026;52.600;4.694;2024-01-11T11:14:13;27.92;;;15.60;;
62724;SDS011;49026;52.600;4.694;2024-01-11T11:16:39;24.52;;;13.88;;
62724;SDS011;49026;52.600;4.694;2024-01-11T11:19:07;24.85;;;13.90;;
62724;SDS011;49026;52.600;4.694;2024-01-11T11:21:42;21.35;;;13.43;;
62724;SDS011;49026;52.600;4.694;2024-01-11T11:24:10;20.58;;;12.10;;
62724;SDS011;49026;52.600;4.694;2024-01-11T11:26:36;22.08;;;13.43;;
62724;SDS011;49026;52.600;4.694;2024-01-11T11:29:03;22.67;;;13.63;;
62724;SDS011;49026;52.600;4.694;2024-01-11T11:31:39;21.67;;;12.63;;
62724;SDS011;49026;52.600;4.694;2024-01-11T11:34:10;19.33;;;12.57;;
62724;SDS011;49026;52.600;4.694;2024-01-11T11:36:36;20.85;;;12.07;;
62724;SDS011;49026;52.600;4.694;2024-01-11T11:39:04;21.20;;;13.02;;
62724;SDS011;49026;52.600;4.694;2024-01-11T11:41:34;17.73;;;10.05;;
62724;SDS011;49026;52.600;4.694;2024-01-11T11:44:02;18.88;;;10.95;;
62724;SDS011;49026;52.600;4.694;2024-01-11T11:46:29;17.83;;;9.70;;
62724;SDS011;49026;52.600;4.694;2024-01-11T11:48:58;21.85;;;10.20;;
62724;SDS011;49026;52.600;4.694;2024-01-11T11:51:26;19.00;;;12.23;;
62724;SDS011;49026;52.600;4.694;2024-01-11T11:53:53;20.00;;;12.35;;
62724;SDS011;49026;52.600;4.694;2024-01-11T11:56:21;16.13;;;10.95;;
62724;SDS011;49026;52.600;4.694;2024-01-11T11:58:47;18.02;;;11.52;;
62724;SDS011;49026;52.600;4.694;2024-01-11T12:01:17;21.70;;;10.55;;
62724;SDS011;49026;52.600;4.694;2024-01-11T12:03:43;25.30;;;14.43;;
62724;SDS011;49026;52.600;4.694;2024-01-11T12:06:14;21.30;;;11.98;;
62724;SDS011;49026;52.600;4.694;2024-01-11T12:08:41;21.13;;;12.02;;
62724;SDS011;49026;52.600;4.694;2024-01-11T12:11:07;20.88;;;12.93;;
62724;SDS011;49026;52.600;4.694;2024-01-11T12:13:33;18.45;;;11.20;;
62724;SDS011;49026;52.600;4.694;2024-01-11T12:16:01;17.80;;;10.82;;
62724;SDS011;49026;52.600;4.694;2024-01-11T12:18:26;17.30;;;10.52;;
62724;SDS011;49026;52.600;4.694;2024-01-11T12:20:52;18.08;;;10.05;;
62724;SDS011;49026;52.600;4.694;2024-01-11T12:23:19;23.13;;;10.15;;
62724;SDS011;49026;52.600;4.694;2024-01-11T12:25:45;14.88;;;8.45;;
62724;SDS011;49026;52.600;4.694;2024-01-11T12:28:10;14.40;;;8.80;;
62724;SDS011;49026;52.600;4.694;2024-01-11T12:30:36;16.35;;;9.98;;
62724;SDS011;49026;52.600;4.694;2024-01-11T12:33:01;16.98;;;9.02;;
62724;SDS011;49026;52.600;4.694;2024-01-11T12:35:27;14.40;;;8.18;;
62724;SDS011;49026;52.600;4.694;2024-01-11T12:37:58;14.80;;;8.50;;
62724;SDS011;49026;52.600;4.694;2024-01-11T12:40:25;16.63;;;10.05;;
62724;SDS011;49026;52.600;4.694;2024-01-11T12:42:56;18.08;;;9.40;;
62724;SDS011;49026;52.600;4.694;2024-01-11T12:45:23;18.58;;;10.60;;
62724;SDS011;49026;52.600;4.694;2024-01-11T12:47:52;17.98;;;8.63;;
62724;SDS011;49026;52.600;4.694;2024-01-11T12:50:19;14.60;;;9.05;;
62724;SDS011;49026;52.600;4.694;2024-01-11T12:52:45;14.60;;;8.63;;
62724;SDS011;49026;52.600;4.694;2024-01-11T12:55:17;13.68;;;9.13;;
62724;SDS011;49026;52.600;4.694;2024-01-11T12:57:46;16.98;;;9.10;;
62724;SDS011;49026;52.600;4.694;2024-01-11T13:00:12;18.77;;;9.10;;
62724;SDS011;49026;52.600;4.694;2024-01-11T13:02:38;13.20;;;8.20;;
62724;SDS011;49026;52.600;4.694;2024-01-11T13:05:07;16.30;;;8.13;;
62724;SDS011;49026;52.600;4.694;2024-01-11T13:07:35;18.80;;;8.07;;
62724;SDS011;49026;52.600;4.694;2024-01-11T13:10:01;14.07;;;8.48;;
62724;SDS011;49026;52.600;4.694;2024-01-11T13:12:34;13.43;;;8.35;;
62724;SDS011;49026;52.600;4.694;2024-01-11T13:14:59;15.63;;;6.53;;
62724;SDS011;49026;52.600;4.694;2024-01-11T13:17:24;16.40;;;7.85;;
62724;SDS011;49026;52.600;4.694;2024-01-11T13:19:50;17.88;;;7.72;;
62724;SDS011;49026;52.600;4.694;2024-01-11T13:22:15;13.38;;;6.78;;
62724;SDS011;49026;52.600;4.694;2024-01-11T13:24:40;19.75;;;6.88;;
62724;SDS011;49026;52.600;4.694;2024-01-11T13:27:05;17.20;;;4.50;;
62724;SDS011;49026;52.600;4.694;2024-01-11T13:29:31;14.00;;;4.75;;
62724;SDS011;49026;52.600;4.694;2024-01-11T13:31:56;20.35;;;4.78;;
62724;SDS011;49026;52.600;4.694;2024-01-11T13:34:21;18.95;;;4.18;;
62724;SDS011;49026;52.600;4.694;2024-01-11T13:36:48;19.52;;;3.97;;
62724;SDS011;49026;52.600;4.694;2024-01-11T13:39:13;26.20;;;3.35;;
62724;SDS011;49026;52.600;4.694;2024-01-11T13:41:39;11.77;;;2.30;;
62724;SDS011;49026;52.600;4.694;2024-01-11T13:44:05;15.50;;;2.90;;
62724;SDS011;49026;52.600;4.694;2024-01-11T13:46:31;21.67;;;2.72;;
62724;SDS011;49026;52.600;4.694;2024-01-11T13:48:57;15.80;;;2.38;;
62724;SDS011;49026;52.600;4.694;2024-01-11T13:51:23;24.23;;;3.25;;
62724;SDS011;49026;52.600;4.694;2024-01-11T13:53:50;29.63;;;3.65;;
62724;SDS011;49026;52.600;4.694;2024-01-11T13:56:15;15.27;;;2.83;;
62724;SDS011;49026;52.600;4.694;2024-01-11T13:58:41;22.33;;;2.80;;
62724;SDS011;49026;52.600;4.694;2024-01-11T14:01:06;23.92;;;2.97;;
62724;SDS011;49026;52.600;4.694;2024-01-11T14:03:34;19.48;;;3.00;;
62724;SDS011;49026;52.600;4.694;2024-01-11T14:06:02;21.15;;;3.40;;
62724;SDS011;49026;52.600;4.694;2024-01-11T14:08:27;24.58;;;3.42;;
62724;SDS011;49026;52.600;4.694;2024-01-11T14:10:53;26.98;;;3.20;;
62724;SDS011;49026;52.600;4.694;2024-01-11T14:13:19;21.65;;;2.88;;
62724;SDS011;49026;52.600;4.694;2024-01-11T14:15:44;37.92;;;3.65;;
62724;SDS011;49026;52.600;4.694;2024-01-11T14:18:13;20.77;;;2.60;;
62724;SDS011;49026;52.600;4.694;2024-01-11T14:20:38;21.50;;;2.45;;
62724;SDS011;49026;52.600;4.694;2024-01-11T14:23:03;25.60;;;3.13;;